KPAM/PAM METAR and TAF weather

Enter ICAO airport designator
Station Type Date Time Source
KPAM METAR 2019/02/17 16:16 UTC NOAA

KPAM 171616Z AUTO 15015KT 10SM FEW024 SCT034 24/18 A2993 RMK AO2 SLP138 $


Station Type Date Time Source
KPAM Decoded METAR 2019/02/17 16:16 UTC NOAA

Tyndall Air Force Base, FL, United States (KPAM) 30-04N 085-35W 13M
Feb 17, 2019 - 11:16 AM EST / 2019.02.17 1616 UTC
Wind: from the SSE (150 degrees) at 17 MPH (15 KT):0
Visibility: 10 mile(s):0
Sky conditions: partly cloudy
Temperature: 75 F (24 C)
Dew Point: 64 F (18 C)
Relative Humidity: 69%
Pressure (altimeter): 29.93 in. Hg (1013 hPa)
ob: KPAM 171616Z AUTO 15015KT 10SM FEW024 SCT034 24/18 A2993 RMK AO2 SLP138
cycle: 16

Station Type Date Time Source
KPAM TAF 2019/02/15 22:58 UTC NOAA

TAF
AMD KPAM 152255Z 1522/1701 17009KT 9999 SCT050 OVC150 QNH2989INS
BECMG 1601/1602 17009KT 9999 BKN025 OVC150 QNH2983INS
BECMG 1609/1610 20009KT 8000 BR OVC010 QNH2985INS
BECMG 1615/1616 20009KT 9000 -SHRA OVC020 QNH2980INS TX21/1522Z TN16/1610Z LAST NO
AMDS AFT 1523 NEXT 1911


Example: see airport list